createdAt,value
2016-12-07T11:19:12.102Z,156
2016-12-07T11:19:52.672Z,164
2016-12-07T11:20:33.232Z,164
2016-12-07T11:21:13.779Z,160
2016-12-07T11:21:54.336Z,164
2016-12-07T11:22:34.900Z,156
2016-12-07T11:23:15.466Z,156
2016-12-07T11:23:56.030Z,160
2016-12-07T11:50:52.672Z,80
2016-12-07T11:51:33.241Z,80
2016-12-07T11:52:20.667Z,80
2016-12-07T11:53:01.233Z,84
2016-12-07T11:53:41.811Z,80
2016-12-07T11:54:23.362Z,84
2016-12-07T11:55:04.097Z,84
2016-12-07T11:55:44.660Z,88
2016-12-07T11:56:25.275Z,88
2016-12-07T11:57:05.835Z,84
2016-12-07T11:57:46.404Z,84
2016-12-07T11:58:26.961Z,84
2016-12-07T11:59:07.541Z,84
2016-12-07T11:59:48.101Z,84
2016-12-07T12:00:28.665Z,84
2016-12-07T12:01:09.231Z,84
2016-12-07T12:01:49.802Z,84
2016-12-07T12:02:30.387Z,80
2016-12-07T12:03:10.967Z,80
2016-12-07T12:03:51.528Z,76
2016-12-07T12:04:32.101Z,80
2016-12-07T12:05:27.669Z,80
2016-12-07T12:06:08.218Z,80
2016-12-07T12:06:48.797Z,80
2016-12-07T12:07:29.370Z,80
2016-12-07T12:08:09.945Z,80
2016-12-07T12:08:50.494Z,80
2016-12-07T12:09:31.087Z,76
2016-12-07T12:10:11.638Z,76
2016-12-07T12:10:52.235Z,76
2016-12-07T12:11:32.804Z,76
2016-12-07T12:12:13.376Z,80
2016-12-07T12:12:53.953Z,80
2016-12-07T12:13:34.534Z,80
2016-12-07T12:14:15.123Z,80
2016-12-07T12:14:55.705Z,80
2016-12-07T12:15:36.286Z,80
2016-12-07T12:16:16.861Z,72
2016-12-07T12:16:57.436Z,80
2016-12-07T12:17:38.014Z,80
2016-12-07T12:18:18.571Z,80
2016-12-07T12:18:59.117Z,80
2016-12-07T12:19:39.743Z,80
2016-12-07T12:20:20.345Z,80
2016-12-07T12:21:00.931Z,88
2016-12-07T12:21:41.564Z,88
2016-12-07T12:22:22.140Z,88
2016-12-07T12:23:02.719Z,84
2016-12-07T12:23:43.261Z,84
2016-12-07T12:26:01.827Z,84
2016-12-07T12:26:42.914Z,84
2016-12-07T12:27:23.868Z,88
2016-12-07T12:28:04.337Z,84
2016-12-07T12:28:44.915Z,84
2016-12-07T12:29:25.501Z,84
2016-12-07T12:30:06.093Z,84
2016-12-07T12:30:46.664Z,80
2016-12-07T12:31:27.555Z,84
2016-12-07T12:32:08.111Z,84
2016-12-07T12:32:48.736Z,80
2016-12-07T12:33:29.587Z,80
2016-12-07T12:34:10.175Z,80
2016-12-07T12:34:50.731Z,80
2016-12-07T12:35:31.309Z,80
2016-12-07T12:36:11.849Z,80
2016-12-07T12:36:52.411Z,80
2016-12-07T12:37:32.992Z,80
2016-12-07T12:38:13.577Z,76
2016-12-07T12:38:54.153Z,80
2016-12-07T12:39:34.727Z,80
2016-12-07T12:40:15.315Z,152
2016-12-07T12:40:55.892Z,148
